Time;durP1;ratioP1;P1;durP2;ratioP2;P2;SDS_P1;SDS_P2;PMS_P1;PMS_P2;Temp;Humidity;BMP_temperature;BMP_pressure;BME280_temperature;BME280_humidity;BME280_pressure;Samples;Min_cycle;Max_cycle;Signal;HPM_P1;HPM_P2
2022/08/05 00:01:37;;;;;;;8.57;6.65;;;;;;;21.15;56.42;100175.38;5053216;28;20071;-74
2022/08/05 00:04:03;;;;;;;7.65;6.63;;;;;;;21.15;56.38;100186.25;5053677;28;20058;-75
2022/08/05 00:06:28;;;;;;;9.25;6.15;;;;;;;21.13;56.48;100177.31;5053894;28;20025;-74
2022/08/05 00:08:54;;;;;;;10.73;6.15;;;;;;;21.09;56.19;100188.53;5053690;28;20041;-75
2022/08/05 00:11:19;;;;;;;7.80;5.93;;;;;;;21.06;56.14;100186.75;5051766;28;20028;-74
2022/08/05 00:13:45;;;;;;;7.20;5.90;;;;;;;21.03;56.37;100185.78;5053101;28;20134;-74
2022/08/05 00:16:14;;;;;;;8.02;6.32;;;;;;;21.00;56.41;100178.19;5051661;28;20039;-74
2022/08/05 00:18:45;;;;;;;10.07;6.45;;;;;;;20.95;56.90;100184.16;5051863;28;20454;-74
2022/08/05 00:21:11;;;;;;;6.38;5.22;;;;;;;20.89;57.11;100175.59;5053222;28;20044;-75
2022/08/05 00:23:37;;;;;;;8.98;6.00;;;;;;;20.86;56.86;100176.72;5052877;28;20036;-75
2022/08/05 00:26:02;;;;;;;9.18;5.80;;;;;;;20.81;57.48;100181.34;5052973;28;20037;-74
2022/08/05 00:28:28;;;;;;;10.32;7.10;;;;;;;20.75;57.77;100174.88;5051799;28;20041;-74
2022/08/05 00:30:53;;;;;;;10.90;6.78;;;;;;;20.69;58.01;100168.44;5052804;28;20401;-76
2022/08/05 00:33:18;;;;;;;7.18;6.47;;;;;;;20.65;58.25;100176.69;5053114;28;20052;-75
2022/08/05 00:35:44;;;;;;;7.50;5.82;;;;;;;20.62;58.15;100177.06;5053202;28;20470;-74
2022/08/05 00:38:09;;;;;;;7.47;6.47;;;;;;;20.60;58.08;100171.03;5052614;28;20049;-75
2022/08/05 00:40:46;;;;;;;8.73;6.97;;;;;;;20.57;58.31;100172.97;5052910;28;20071;-76
2022/08/05 00:43:11;;;;;;;8.15;6.55;;;;;;;20.55;58.43;100169.06;5052817;28;20064;-74
2022/08/05 00:45:36;;;;;;;7.28;6.30;;;;;;;20.51;58.55;100169.41;5052837;28;20056;-74
2022/08/05 00:48:02;;;;;;;7.25;6.55;;;;;;;20.48;58.70;100164.75;5052966;28;20488;-74
2022/08/05 00:50:27;;;;;;;9.23;6.35;;;;;;;20.48;58.70;100166.88;5035163;28;20421;-74
2022/08/05 00:52:52;;;;;;;8.30;6.15;;;;;;;20.46;58.61;100166.66;5052875;28;20032;-73
2022/08/05 00:55:18;;;;;;;7.85;7.00;;;;;;;20.44;58.89;100160.66;5053370;28;20037;-74
2022/08/05 00:57:43;;;;;;;12.10;6.72;;;;;;;20.42;58.60;100161.19;5052351;28;20032;-75
2022/08/05 01:00:10;;;;;;;8.57;6.05;;;;;;;20.38;58.81;100152.84;5052823;28;20025;-74
2022/08/05 01:02:35;;;;;;;8.68;6.20;;;;;;;20.34;59.42;100149.53;5051453;28;20083;-75
2022/08/05 01:05:01;;;;;;;9.00;6.25;;;;;;;20.25;58.98;100141.28;5052698;28;20029;-74
2022/08/05 01:07:26;;;;;;;7.35;6.35;;;;;;;20.29;59.44;100144.66;5052680;28;20107;-73
2022/08/05 01:09:51;;;;;;;23.77;7.45;;;;;;;20.29;59.30;100146.75;5052815;28;20041;-74
2022/08/05 01:12:19;;;;;;;9.00;7.00;;;;;;;20.25;59.66;100150.00;5051291;28;20040;-74
2022/08/05 01:14:53;;;;;;;8.68;6.32;;;;;;;20.23;59.93;100149.03;5051159;28;20127;-75
2022/08/05 01:17:28;;;;;;;8.80;6.47;;;;;;;20.17;60.21;100143.34;5051375;28;20033;-74
2022/08/05 01:20:19;;;;;;;7.78;6.18;;;;;;;20.15;60.50;100140.22;5052547;28;20470;-74
2022/08/05 01:22:58;;;;;;;7.90;6.60;;;;;;;20.10;60.22;100141.16;5052894;28;20163;-74
2022/08/05 01:25:35;;;;;;;7.07;6.40;;;;;;;20.06;60.85;100134.91;5051296;28;20029;-74
2022/08/05 01:28:26;;;;;;;7.57;6.75;;;;;;;20.02;60.87;100137.38;5052395;28;20029;-73
2022/08/05 01:31:00;;;;;;;6.93;6.10;;;;;;;19.99;61.12;100134.84;5051064;28;20035;-73
2022/08/05 01:33:32;;;;;;;8.48;6.32;;;;;;;19.94;61.18;100133.63;5052293;28;20271;-75
2022/08/05 01:36:00;;;;;;;10.15;6.65;;;;;;;19.86;61.49;100124.78;5051855;28;20028;-75
2022/08/05 01:38:26;;;;;;;9.95;6.22;;;;;;;19.89;61.22;100131.59;5054603;28;20044;-74
2022/08/05 01:40:53;;;;;;;11.60;6.85;;;;;;;19.86;61.78;100121.09;5054910;28;20033;-75
2022/08/05 01:43:19;;;;;;;7.47;6.75;;;;;;;19.83;61.72;100119.34;5055001;28;20025;-75
2022/08/05 01:45:45;;;;;;;9.25;6.90;;;;;;;19.80;61.71;100121.25;5055692;28;20481;-74
2022/08/05 01:48:11;;;;;;;12.55;6.90;;;;;;;19.76;61.93;100117.91;5054503;28;20052;-73
2022/08/05 01:50:39;;;;;;;9.95;6.40;;;;;;;19.72;62.29;100117.47;5054664;28;20037;-74
2022/08/05 01:53:07;;;;;;;9.13;6.68;;;;;;;19.68;62.34;100122.84;5055961;28;20062;-74
2022/08/05 01:55:34;;;;;;;8.35;6.50;;;;;;;19.66;62.67;100113.16;5054558;28;20385;-74
2022/08/05 01:58:00;;;;;;;8.95;6.90;;;;;;;19.63;62.36;100117.94;5055652;28;20021;-75
2022/08/05 02:00:27;;;;;;;9.60;6.93;;;;;;;19.60;62.61;100127.00;5054345;28;20028;-74
2022/08/05 02:02:58;;;;;;;9.20;7.28;;;;;;;19.57;63.02;100119.41;5055840;28;20033;-73
2022/08/05 02:05:27;;;;;;;9.27;7.75;;;;;;;19.49;63.05;100114.31;5054227;28;20025;-74
2022/08/05 02:07:53;;;;;;;9.10;7.28;;;;;;;19.49;62.87;100116.44;5037569;28;20033;-74
2022/08/05 02:10:19;;;;;;;9.27;6.88;;;;;;;19.45;63.22;100110.97;5055417;28;20025;-74
2022/08/05 02:12:59;;;;;;;11.10;6.60;;;;;;;19.43;63.45;100107.06;5055223;28;20056;-74
2022/08/05 02:15:28;;;;;;;8.97;7.40;;;;;;;19.40;63.49;100105.31;5054137;28;20031;-74
2022/08/05 02:18:03;;;;;;;11.35;6.95;;;;;;;19.35;63.45;100103.31;5053979;28;20049;-74
2022/08/05 02:20:31;;;;;;;7.95;6.80;;;;;;;19.35;63.49;100106.19;5054093;28;20024;-74
2022/08/05 02:22:59;;;;;;;9.80;7.07;;;;;;;19.31;63.82;100115.25;5053911;28;20028;-74
2022/08/05 02:25:27;;;;;;;8.18;6.70;;;;;;;19.29;63.85;100100.53;5054992;28;20532;-75
2022/08/05 02:27:55;;;;;;;8.10;7.15;;;;;;;19.26;64.00;100103.75;5053821;28;20033;-74
2022/08/05 02:30:21;;;;;;;13.35;7.72;;;;;;;19.23;64.19;100104.84;5055462;28;20139;-73
2022/08/05 02:32:49;;;;;;;8.40;6.63;;;;;;;19.19;64.63;100096.50;5053733;28;20043;-73
2022/08/05 02:35:19;;;;;;;11.27;7.32;;;;;;;19.17;64.90;100101.28;5053742;28;20029;-74
2022/08/05 02:37:45;;;;;;;11.13;7.45;;;;;;;19.12;64.43;100094.25;5054450;28;20036;-73
2022/08/05 02:40:11;;;;;;;9.30;7.68;;;;;;;19.09;64.97;100095.38;5053588;28;20028;-74
2022/08/05 02:42:37;;;;;;;9.90;7.55;;;;;;;19.05;64.93;100094.94;5037011;28;20029;-74
2022/08/05 02:45:03;;;;;;;10.75;7.20;;;;;;;19.01;65.46;100091.59;5053645;28;20496;-74
2022/08/05 02:47:30;;;;;;;9.93;7.38;;;;;;;18.99;65.65;100091.38;5053274;28;20025;-74
2022/08/05 02:49:55;;;;;;;10.73;7.20;;;;;;;18.97;65.65;100089.03;5036792;28;20466;-73
2022/08/05 02:52:21;;;;;;;10.52;7.90;;;;;;;18.94;65.71;100086.47;5054616;28;20116;-74
2022/08/05 02:54:47;;;;;;;10.45;7.70;;;;;;;18.88;65.63;100082.91;5054698;28;20435;-73
2022/08/05 02:57:13;;;;;;;11.35;7.88;;;;;;;18.92;65.91;100092.81;5054716;28;20043;-74
2022/08/05 02:59:44;;;;;;;8.77;7.68;;;;;;;18.88;65.85;100092.38;5054526;28;20056;-73
2022/08/05 03:02:10;;;;;;;12.07;7.85;;;;;;;18.88;65.83;100098.16;5053318;28;20021;-74
2022/08/05 03:04:37;;;;;;;10.32;9.15;;;;;;;18.85;66.01;100093.50;5053171;28;20032;-74
2022/08/05 03:07:02;;;;;;;10.57;7.82;;;;;;;18.79;66.19;100086.25;5054153;28;20556;-74
2022/08/05 03:09:28;;;;;;;9.93;8.32;;;;;;;18.78;66.68;100090.47;5053153;28;20025;-75
2022/08/05 03:11:53;;;;;;;13.20;8.60;;;;;;;18.74;66.50;100079.22;5053320;28;20052;-73
2022/08/05 03:14:18;;;;;;;14.63;8.65;;;;;;;18.75;66.51;100082.91;5054298;28;20025;-74
2022/08/05 03:16:44;;;;;;;11.73;7.65;;;;;;;18.73;67.09;100080.56;5054411;28;20028;-74
2022/08/05 03:19:09;;;;;;;12.05;8.18;;;;;;;18.69;66.73;100083.78;5052803;28;20486;-73
2022/08/05 03:21:35;;;;;;;12.65;9.13;;;;;;;18.65;66.96;100073.88;5054068;28;20052;-74
2022/08/05 03:24:00;;;;;;;10.63;8.98;;;;;;;18.64;67.00;100069.41;5053997;28;20134;-74
2022/08/05 03:26:26;;;;;;;10.75;8.57;;;;;;;18.65;67.00;100077.56;5054024;28;20501;-74
2022/08/05 03:28:52;;;;;;;10.60;8.30;;;;;;;18.64;67.34;100075.22;5052705;28;20056;-74
2022/08/05 03:31:17;;;;;;;13.25;7.95;;;;;;;18.62;67.29;100063.44;5052853;28;20024;-74
2022/08/05 03:33:43;;;;;;;12.05;8.27;;;;;;;18.61;67.74;100067.66;5052526;28;20113;-74
2022/08/05 03:36:09;;;;;;;8.95;7.65;;;;;;;18.61;67.50;100071.31;5052434;28;20029;-74
2022/08/05 03:38:39;;;;;;;13.75;8.57;;;;;;;18.63;67.70;100070.75;5053805;28;20170;-73
2022/08/05 03:41:04;;;;;;;11.73;8.93;;;;;;;18.64;67.58;100069.41;5053990;28;20025;-73
2022/08/05 03:43:30;;;;;;;15.68;9.32;;;;;;;18.64;67.33;100072.31;5053800;28;20355;-73
2022/08/05 03:45:55;;;;;;;15.68;8.63;;;;;;;18.64;67.36;100066.53;5053850;28;20023;-73
2022/08/05 03:48:20;;;;;;;12.00;7.88;;;;;;;18.65;67.37;100068.09;5052233;28;20017;-74
2022/08/05 03:51:07;;;;;;;11.65;8.43;;;;;;;18.66;67.70;100070.44;5053465;28;20064;-74
2022/08/05 03:53:40;;;;;;;13.43;8.45;;;;;;;18.65;67.64;100068.88;5052524;28;20021;-74
2022/08/05 03:56:21;;;;;;;16.17;8.23;;;;;;;18.68;67.50;100066.97;5052366;28;20021;-74
2022/08/05 03:58:47;;;;;;;13.60;8.43;;;;;;;18.69;67.36;100075.09;5051663;28;20021;-75
2022/08/05 04:01:13;;;;;;;11.80;9.20;;;;;;;18.63;67.46;100053.38;5052444;28;20033;-73
2022/08/05 04:03:41;;;;;;;13.48;8.20;;;;;;;18.74;67.49;100064.75;5052328;28;20053;-73
2022/08/05 04:06:07;;;;;;;12.32;9.15;;;;;;;18.77;67.69;100065.78;5052502;28;20017;-74
2022/08/05 04:08:33;;;;;;;13.52;9.18;;;;;;;18.77;67.56;100072.31;5052359;28;20047;-74
2022/08/05 04:11:01;;;;;;;13.57;8.38;;;;;;;18.80;67.53;100061.75;5052293;28;20029;-74
2022/08/05 04:13:27;;;;;;;11.23;8.52;;;;;;;18.83;67.15;100070.09;5053097;28;20060;-74
2022/08/05 04:15:52;;;;;;;11.45;8.95;;;;;;;18.86;67.48;100060.31;5053266;28;20039;-73
2022/08/05 04:18:17;;;;;;;12.77;8.73;;;;;;;18.89;66.98;100070.78;5053628;28;20363;-74
2022/08/05 04:20:43;;;;;;;10.02;8.65;;;;;;;18.94;66.89;100066.19;5053241;28;20491;-75
2022/08/05 04:23:09;;;;;;;12.75;8.88;;;;;;;18.98;67.18;100063.75;5053590;28;20025;-74
2022/08/05 04:25:34;;;;;;;12.70;8.77;;;;;;;19.01;67.10;100063.44;5053327;28;20051;-74
2022/08/05 04:28:00;;;;;;;10.13;8.48;;;;;;;19.04;67.14;100052.81;5053126;28;20029;-76
2022/08/05 04:30:25;;;;;;;12.48;8.77;;;;;;;19.07;66.88;100057.50;5052884;28;20045;-74
2022/08/05 04:32:51;;;;;;;14.57;8.98;;;;;;;19.10;67.28;100062.19;5053219;28;20028;-75
2022/08/05 04:35:16;;;;;;;12.95;9.07;;;;;;;19.15;66.88;100052.63;5052278;28;20039;-74
2022/08/05 04:37:41;;;;;;;15.40;9.88;;;;;;;19.20;66.99;100051.72;5052766;28;20040;-75
2022/08/05 04:40:08;;;;;;;13.68;8.98;;;;;;;19.22;67.14;100051.16;5053260;28;20377;-74
2022/08/05 04:42:33;;;;;;;13.18;9.18;;;;;;;19.31;67.03;100053.59;5052867;28;20033;-74
2022/08/05 04:44:58;;;;;;;14.98;9.48;;;;;;;19.36;66.64;100052.69;5052764;28;20440;-74
2022/08/05 04:47:24;;;;;;;12.18;9.05;;;;;;;19.40;66.35;100050.22;5052737;28;20036;-74
2022/08/05 04:49:49;;;;;;;11.38;8.73;;;;;;;19.48;66.41;100063.47;5052740;28;20079;-74
2022/08/05 04:52:15;;;;;;;12.13;8.77;;;;;;;19.43;66.38;100046.97;5052791;28;20025;-74
2022/08/05 04:54:40;;;;;;;16.55;9.80;;;;;;;19.58;66.35;100060.09;5051634;28;20025;-74
2022/08/05 04:57:05;;;;;;;11.77;10.05;;;;;;;19.62;66.20;100058.41;5052799;28;20025;-74
2022/08/05 04:59:31;;;;;;;16.35;9.30;;;;;;;19.70;65.66;100070.09;5052755;28;20031;-74
2022/08/05 05:01:57;;;;;;;15.50;9.50;;;;;;;19.76;65.74;100065.72;5051633;28;20108;-74
2022/08/05 05:04:23;;;;;;;14.27;9.82;;;;;;;19.86;65.57;100066.00;5052890;28;20028;-74
2022/08/05 05:06:48;;;;;;;12.77;9.05;;;;;;;19.94;65.43;100064.78;5052708;28;20090;-75
2022/08/05 05:09:13;;;;;;;17.00;9.38;;;;;;;20.01;65.52;100072.00;5052729;28;20432;-74
2022/08/05 05:11:39;;;;;;;13.73;9.02;;;;;;;20.11;64.76;100075.97;5054271;28;20028;-75
2022/08/05 05:14:05;;;;;;;14.50;8.93;;;;;;;20.17;64.62;100061.31;5056415;28;20051;-74
2022/08/05 05:16:30;;;;;;;15.80;8.50;;;;;;;20.26;64.16;100066.63;5056381;28;20097;-74
2022/08/05 05:18:56;;;;;;;17.50;9.05;;;;;;;20.39;64.12;100060.75;5056301;28;20118;-73
2022/08/05 05:21:21;;;;;;;14.95;8.20;;;;;;;20.49;63.69;100064.69;5056423;28;20390;-74
2022/08/05 05:23:46;;;;;;;12.88;8.27;;;;;;;20.61;63.82;100068.84;5055140;28;20033;-74
2022/08/05 05:26:12;;;;;;;14.85;8.75;;;;;;;20.68;63.55;100065.22;5056161;28;20035;-73
2022/08/05 05:28:37;;;;;;;17.73;9.20;;;;;;;20.78;63.19;100060.50;5056143;28;20036;-74
2022/08/05 05:31:03;;;;;;;15.18;8.93;;;;;;;20.87;62.89;100061.31;5056424;28;20326;-74
2022/08/05 05:33:28;;;;;;;12.50;9.20;;;;;;;20.99;62.67;100053.84;5054932;28;20039;-75
2022/08/05 05:35:54;;;;;;;18.88;9.32;;;;;;;21.02;62.12;100049.78;5056530;28;20021;-75
2022/08/05 05:38:19;;;;;;;13.40;8.38;;;;;;;21.14;61.88;100053.88;5056095;28;20517;-74
2022/08/05 05:40:45;;;;;;;20.65;9.02;;;;;;;21.22;61.64;100058.41;5056321;28;20021;-73
2022/08/05 05:43:10;;;;;;;12.32;8.82;;;;;;;21.29;61.54;100059.78;5054648;28;20098;-74
2022/08/05 05:45:35;;;;;;;11.10;7.90;;;;;;;21.35;61.38;100054.56;5056046;28;20379;-75
2022/08/05 05:48:01;;;;;;;14.10;8.60;;;;;;;21.50;60.93;100063.41;5055856;28;20032;-74
2022/08/05 05:50:27;;;;;;;19.42;9.07;;;;;;;21.58;60.60;100061.28;5055815;28;20029;-74
2022/08/05 05:52:53;;;;;;;15.40;8.93;;;;;;;21.66;60.78;100065.00;5055819;28;20039;-75
2022/08/05 05:55:18;;;;;;;10.23;8.48;;;;;;;21.74;60.36;100062.09;5055804;28;20048;-76
2022/08/05 05:57:45;;;;;;;12.30;8.43;;;;;;;21.86;60.16;100066.22;5055014;28;20027;-75
2022/08/05 06:00:16;;;;;;;17.05;8.82;;;;;;;21.95;59.95;100064.88;5054837;28;20326;-75
2022/08/05 06:02:42;;;;;;;14.32;9.65;;;;;;;22.02;59.40;100061.22;5054467;28;20029;-75
2022/08/05 06:05:09;;;;;;;12.65;8.60;;;;;;;22.15;59.72;100068.97;5055818;28;20055;-75
2022/08/05 06:07:35;;;;;;;21.30;8.77;;;;;;;22.26;59.12;100068.63;5055720;28;20498;-75
2022/08/05 06:10:01;;;;;;;16.73;8.73;;;;;;;22.40;58.91;100070.78;5054311;28;20092;-75
2022/08/05 06:12:26;;;;;;;24.30;9.70;;;;;;;22.51;58.88;100066.72;5054196;28;20029;-74
2022/08/05 06:14:52;;;;;;;16.88;7.63;;;;;;;22.61;58.19;100066.91;5055663;28;20344;-74
2022/08/05 06:17:17;;;;;;;11.32;8.13;;;;;;;22.72;57.84;100067.25;5055182;28;20017;-74
2022/08/05 06:19:43;;;;;;;14.32;7.85;;;;;;;22.85;58.02;100064.13;5055067;28;20369;-74
2022/08/05 06:22:08;;;;;;;13.20;7.15;;;;;;;23.03;57.46;100056.34;5053662;28;20485;-75
2022/08/05 06:24:34;;;;;;;16.63;8.65;;;;;;;23.17;57.59;100063.50;5054064;28;20025;-74
2022/08/05 06:27:00;;;;;;;14.93;8.38;;;;;;;23.37;56.55;100055.84;5055105;28;20347;-73
2022/08/05 06:29:26;;;;;;;10.80;7.55;;;;;;;23.58;56.70;100064.34;5053754;28;20029;-74
2022/08/05 06:31:52;;;;;;;8.52;6.90;;;;;;;23.84;55.71;100071.78;5055207;28;20106;-75
2022/08/05 06:34:17;;;;;;;13.55;7.68;;;;;;;24.09;55.14;100064.63;5053898;28;20491;-74
2022/08/05 06:36:43;;;;;;;17.85;8.20;;;;;;;24.39;54.11;100063.66;5053739;28;20067;-74
2022/08/05 06:39:08;;;;;;;10.27;7.10;;;;;;;24.82;52.88;100065.22;5054794;28;20059;-74
2022/08/05 06:41:33;;;;;;;8.75;6.38;;;;;;;26.43;51.66;100059.63;5054883;28;20056;-75
2022/08/05 06:43:59;;;;;;;9.52;6.63;;;;;;;28.80;46.91;100045.19;5055157;28;20025;-76
2022/08/05 06:46:25;;;;;;;12.50;6.30;;;;;;;31.16;41.05;100050.41;5037088;28;20029;-75
2022/08/05 06:48:50;;;;;;;7.82;5.97;;;;;;;33.33;37.46;100064.22;5053776;28;20425;-75
2022/08/05 06:51:15;;;;;;;23.67;8.25;;;;;;;34.75;33.92;100069.09;5054970;28;20017;-76
2022/08/05 06:53:41;;;;;;;7.47;6.32;;;;;;;35.13;32.10;100087.91;5053771;28;20028;-74
2022/08/05 06:56:06;;;;;;;13.07;6.40;;;;;;;35.01;32.28;100087.31;5055302;28;20021;-75
2022/08/05 06:58:32;;;;;;;11.95;5.60;;;;;;;35.95;31.63;100080.28;5054853;28;20017;-74
2022/08/05 07:00:59;;;;;;;8.98;5.82;;;;;;;37.60;29.43;100085.94;5054880;28;20107;-73
2022/08/05 07:03:25;;;;;;;7.38;5.15;;;;;;;39.36;26.66;100079.53;5053328;28;20025;-75
2022/08/05 07:05:50;;;;;;;13.27;5.65;;;;;;;40.97;25.07;100084.22;5053400;28;20025;-75
2022/08/05 07:08:16;;;;;;;11.43;5.57;;;;;;;42.49;23.34;100090.72;5053057;28;20549;-75
2022/08/05 07:10:41;;;;;;;12.55;5.78;;;;;;;43.72;21.26;100088.47;5054211;28;20059;-75
2022/08/05 07:18:34;;;;;;;10.05;4.63;;;;;;;46.83;18.20;100091.72;5054551;28;20580;-77
2022/08/05 07:20:59;;;;;;;7.95;5.00;;;;;;;47.61;17.01;100101.16;5052822;28;20029;-77
2022/08/05 07:23:25;;;;;;;8.10;5.20;;;;;;;48.19;16.67;100105.22;5052954;28;20112;-76
2022/08/05 07:25:50;;;;;;;8.38;5.15;;;;;;;48.61;16.27;100101.03;5054606;28;20329;-75
2022/08/05 07:28:15;;;;;;;8.80;4.63;;;;;;;48.85;15.74;100107.59;5052760;28;20029;-76
2022/08/05 07:30:43;;;;;;;7.00;4.70;;;;;;;49.22;15.43;100101.78;5053898;28;20438;-79
2022/08/05 07:33:09;;;;;;;8.07;4.70;;;;;;;49.32;14.71;100110.00;5052453;28;20025;-76
2022/08/05 07:35:38;;;;;;;9.13;5.65;;;;;;;48.62;14.69;100096.47;5035537;28;20025;-76
2022/08/05 07:38:04;;;;;;;11.15;5.38;;;;;;;47.21;15.97;100096.06;5052676;28;20103;-77
2022/08/05 07:40:30;;;;;;;8.63;5.40;;;;;;;46.08;16.48;100082.03;5054004;28;20036;-76
2022/08/05 07:42:55;;;;;;;11.77;5.00;;;;;;;44.85;17.23;100087.78;5052583;28;20429;-75
2022/08/05 07:45:21;;;;;;;8.33;5.67;;;;;;;44.15;19.20;100074.53;5053768;28;20025;-77
2022/08/05 07:47:46;;;;;;;10.20;5.45;;;;;;;43.95;19.01;100084.16;5052396;28;20279;-76
2022/08/05 07:50:11;;;;;;;9.75;4.60;;;;;;;43.94;19.01;100085.66;5053488;28;20024;-75
2022/08/05 07:52:41;;;;;;;6.55;5.13;;;;;;;44.76;17.95;100077.94;5053557;28;20075;-75
2022/08/05 07:55:08;;;;;;;6.25;3.70;;;;;;;45.72;17.94;100082.75;5053987;28;20027;-77
2022/08/05 07:57:33;;;;;;;5.20;4.45;;;;;;;46.63;16.74;100085.72;5052302;28;20029;-75
2022/08/05 07:59:58;;;;;;;6.95;4.70;;;;;;;47.26;16.63;100077.13;5053382;28;20393;-77
2022/08/05 08:02:25;;;;;;;8.43;5.13;;;;;;;47.91;15.92;100081.97;5052233;28;20021;-76
2022/08/05 08:04:50;;;;;;;8.63;4.40;;;;;;;48.43;15.72;100083.78;5053707;28;20779;-76
2022/08/05 08:07:16;;;;;;;9.73;4.28;;;;;;;48.79;15.55;100091.72;5053221;28;20017;-76
2022/08/05 08:09:42;;;;;;;6.70;5.05;;;;;;;49.10;15.01;100092.06;5052157;28;20025;-76
2022/08/05 08:12:07;;;;;;;4.47;3.83;;;;;;;49.17;14.73;100099.59;5053816;28;20532;-77
2022/08/05 08:14:33;;;;;;;3.92;3.63;;;;;;;49.34;14.90;100094.78;5053300;28;20035;-78
2022/08/05 08:16:58;;;;;;;4.32;3.92;;;;;;;49.50;13.88;100090.78;5053489;28;20013;-77
2022/08/05 08:19:24;;;;;;;29.27;6.47;;;;;;;49.57;14.21;100092.16;5053313;28;20029;-77
2022/08/05 08:21:49;;;;;;;5.23;4.60;;;;;;;49.66;14.82;100081.41;5053239;28;20283;-77
2022/08/05 08:24:14;;;;;;;8.02;3.83;;;;;;;49.74;13.38;100082.00;5053257;28;20283;-77
2022/08/05 08:26:40;;;;;;;4.80;4.20;;;;;;;49.66;14.37;100076.06;5052249;28;20021;-76
2022/08/05 08:29:05;;;;;;;7.27;3.93;;;;;;;49.52;13.46;100076.28;5051732;28;20367;-77
2022/08/05 08:31:30;;;;;;;8.17;4.73;;;;;;;49.33;14.12;100081.88;5053313;28;20271;-77
2022/08/05 08:33:56;;;;;;;9.93;4.73;;;;;;;49.09;13.50;100081.44;5053368;28;20736;-77
2022/08/05 08:36:21;;;;;;;5.40;3.72;;;;;;;48.72;14.00;100075.84;5053317;28;20424;-78
2022/08/05 08:38:47;;;;;;;7.10;4.30;;;;;;;48.49;13.73;100071.56;5052961;28;20466;-78
2022/08/05 08:41:13;;;;;;;4.85;4.13;;;;;;;48.12;13.95;100078.03;5053375;28;20279;-77
2022/08/05 08:43:39;;;;;;;4.78;3.72;;;;;;;47.89;14.50;100063.81;5052113;28;20100;-77
2022/08/05 08:46:05;;;;;;;4.00;3.70;;;;;;;47.78;14.40;100068.47;5055528;28;20029;-78
2022/08/05 08:48:31;;;;;;;6.13;3.53;;;;;;;47.60;14.48;100070.09;5057072;28;20048;-78
2022/08/05 08:50:58;;;;;;;8.25;3.92;;;;;;;47.42;14.52;100066.44;5056562;28;20377;-77
2022/08/05 08:53:26;;;;;;;15.10;4.22;;;;;;;47.23;14.44;100063.53;5055971;28;20024;-77
2022/08/05 08:55:51;;;;;;;9.85;4.40;;;;;;;46.80;14.60;100059.94;5057268;28;20123;-77
2022/08/05 08:58:17;;;;;;;8.52;4.13;;;;;;;46.30;15.36;100054.03;5055852;28;20485;-76
2022/08/05 09:00:43;;;;;;;5.68;3.92;;;;;;;45.89;16.27;100050.28;5055889;28;20061;-77
2022/08/05 09:03:10;;;;;;;9.35;3.85;;;;;;;45.67;15.65;100044.25;5057355;28;20021;-77
2022/08/05 09:05:35;;;;;;;5.50;3.50;;;;;;;45.28;15.60;100046.44;5039057;28;20112;-77
2022/08/05 09:08:00;;;;;;;6.40;3.88;;;;;;;44.91;16.15;100046.34;5055695;28;20071;-77
2022/08/05 09:10:26;;;;;;;6.35;4.35;;;;;;;44.71;16.30;100043.22;5056868;28;20021;-77
2022/08/05 09:12:52;;;;;;;6.35;3.78;;;;;;;44.67;17.59;100031.16;5056835;28;20063;-77
2022/08/05 09:15:17;;;;;;;8.15;3.75;;;;;;;44.71;17.05;100040.97;5056893;28;20032;-77
2022/08/05 09:17:42;;;;;;;8.95;3.63;;;;;;;44.67;15.74;100040.97;5056565;28;20080;-77
2022/08/05 09:20:09;;;;;;;4.18;3.65;;;;;;;44.42;15.73;100041.56;5055369;28;20099;-76
2022/08/05 09:23:09;;;;;;;11.13;3.80;;;;;;;44.06;16.28;100042.06;5055352;28;20151;-77
2022/08/05 09:25:37;;;;;;;29.20;5.93;;;;;;;43.66;16.81;100030.44;5056704;28;20125;-76
2022/08/05 09:28:16;;;;;;;10.68;4.35;;;;;;;43.58;17.22;100030.38;5056670;28;20062;-77
2022/08/05 09:30:52;;;;;;;6.88;3.00;;;;;;;43.41;16.28;100036.25;5055200;28;20037;-76
2022/08/05 09:33:17;;;;;;;5.82;3.15;;;;;;;43.26;16.96;100039.81;5056201;28;20474;-76
2022/08/05 09:36:04;;;;;;;3.25;2.83;;;;;;;43.07;16.29;100027.59;5056642;28;20159;-78
2022/08/05 09:38:30;;;;;;;3.80;2.95;;;;;;;42.84;16.92;100025.06;5037900;28;20428;-78
2022/08/05 09:41:04;;;;;;;3.63;2.83;;;;;;;42.64;17.43;100019.53;5056340;28;20336;-77
2022/08/05 09:43:35;;;;;;;5.53;2.97;;;;;;;42.32;17.68;100013.84;5038257;28;20355;-78
2022/08/05 09:46:01;;;;;;;12.63;3.72;;;;;;;42.05;18.22;99997.66;5055095;28;20021;-76
2022/08/05 09:48:32;;;;;;;7.82;3.50;;;;;;;41.90;18.55;100013.97;5054857;28;20135;-77
2022/08/05 09:51:02;;;;;;;6.47;3.35;;;;;;;41.68;18.26;100016.56;5054728;28;20028;-76
2022/08/05 09:53:29;;;;;;;7.72;3.08;;;;;;;41.41;18.25;100016.09;5054750;28;20497;-76
2022/08/05 09:55:59;;;;;;;6.60;3.60;;;;;;;41.05;18.00;100021.41;5055922;28;20029;-76
2022/08/05 09:58:25;;;;;;;7.53;3.80;;;;;;;40.72;18.27;100011.03;5053563;28;20480;-76
2022/08/05 10:00:56;;;;;;;10.80;3.38;;;;;;;40.45;19.53;100009.66;5054609;28;20099;-76
2022/08/05 10:03:21;;;;;;;3.05;2.55;;;;;;;40.15;19.91;100008.97;5054471;28;20363;-75
2022/08/05 10:06:00;;;;;;;4.38;2.70;;;;;;;39.93;20.08;100011.47;5054652;28;20032;-76
2022/08/05 10:08:25;;;;;;;6.40;3.20;;;;;;;39.81;19.63;100017.88;5054715;28;20053;-76
2022/08/05 10:10:51;;;;;;;3.72;3.13;;;;;;;39.67;19.21;100005.56;5037884;28;20158;-76
2022/08/05 10:13:28;;;;;;;4.90;3.35;;;;;;;39.56;19.86;100010.53;5054382;28;20032;-77
2022/08/05 10:15:55;;;;;;;5.95;3.00;;;;;;;39.45;19.58;100005.75;5055433;28;20025;-76
2022/08/05 10:18:24;;;;;;;8.57;2.83;;;;;;;39.33;19.16;100011.41;5055706;28;20028;-75
2022/08/05 10:20:55;;;;;;;7.05;3.22;;;;;;;39.24;20.46;99998.47;5055937;28;20021;-76
2022/08/05 10:23:32;;;;;;;5.20;2.83;;;;;;;39.06;20.24;100000.19;5054402;28;20025;-76
2022/08/05 10:25:59;;;;;;;5.25;2.92;;;;;;;38.44;20.52;100006.63;5055497;28;20027;-75
2022/08/05 10:28:25;;;;;;;4.65;2.92;;;;;;;37.97;20.84;100001.41;5054021;28;20021;-76
2022/08/05 10:30:52;;;;;;;3.20;2.90;;;;;;;37.76;20.77;100014.16;5054042;28;20044;-75
2022/08/05 10:33:17;;;;;;;3.17;2.75;;;;;;;37.52;20.14;99987.22;5053895;28;20028;-76
2022/08/05 10:35:43;;;;;;;9.35;3.17;;;;;;;37.34;19.99;99989.59;5055303;28;20024;-75
2022/08/05 10:38:08;;;;;;;4.68;2.78;;;;;;;37.19;20.38;99988.31;5053541;28;20041;-76
2022/08/05 10:40:53;;;;;;;6.05;2.83;;;;;;;37.09;20.66;99987.97;5054240;28;20024;-76
2022/08/05 10:43:27;;;;;;;17.83;4.75;;;;;;;37.01;20.56;99987.69;5054084;28;20021;-76
2022/08/05 10:45:58;;;;;;;3.58;2.60;;;;;;;36.87;20.73;99987.16;5055384;28;20025;-76
2022/08/05 10:48:36;;;;;;;8.13;3.03;;;;;;;36.79;23.35;99974.94;5055199;28;20478;-76
2022/08/05 10:51:18;;;;;;;14.68;3.88;;;;;;;36.70;22.52;99979.06;5055261;28;20060;-75
2022/08/05 10:53:55;;;;;;;3.78;2.70;;;;;;;36.68;21.60;99982.00;5054957;28;20029;-76
2022/08/05 10:56:21;;;;;;;6.53;2.60;;;;;;;36.59;21.91;99980.91;5054807;28;20370;-75
2022/08/05 10:58:56;;;;;;;5.10;2.97;;;;;;;36.49;21.32;99983.50;5053607;28;20013;-77
2022/08/05 11:01:31;;;;;;;4.95;2.75;;;;;;;36.26;20.54;99975.91;5053686;28;20108;-76
2022/08/05 11:03:59;;;;;;;15.75;4.28;;;;;;;36.03;21.30;99967.59;5054737;28;20035;-76
2022/08/05 11:06:24;;;;;;;12.02;3.30;;;;;;;35.93;21.09;99956.03;5054876;28;20055;-76
2022/08/05 11:09:10;;;;;;;23.00;4.22;;;;;;;35.89;21.95;99964.75;5054683;28;20021;-75
2022/08/05 11:11:36;;;;;;;6.97;2.70;;;;;;;35.80;21.24;99956.19;5054308;28;20033;-75
2022/08/05 11:14:02;;;;;;;9.43;2.97;;;;;;;35.71;22.20;99961.06;5036558;28;20028;-76
2022/08/05 11:16:28;;;;;;;7.82;2.55;;;;;;;35.58;21.62;99968.75;5054651;28;20021;-75
2022/08/05 11:19:26;;;;;;;4.10;2.28;;;;;;;35.50;21.55;99971.34;5053579;28;20025;-76
2022/08/05 11:21:53;;;;;;;12.75;3.47;;;;;;;35.39;21.10;99978.31;5054728;28;20048;-75
2022/08/05 11:24:20;;;;;;;8.05;3.13;;;;;;;35.33;20.70;99975.09;5053116;28;20047;-76
2022/08/05 11:26:47;;;;;;;19.17;4.38;;;;;;;35.27;20.73;99965.16;5052772;28;20482;-77
2022/08/05 11:29:36;;;;;;;5.35;2.45;;;;;;;35.31;21.47;99969.06;5053056;28;20020;-76